Bannings Vale, United Kingdom
Current Conditions -  °F | °C
As of 2:50 PM on Wednesday 22 Oct 2014 (Local Time) from EGKA Reporting Station
Few Clouds Few Clouds  
Wind Chill: 55°   Ceiling: Unl
Heat Index: 55°   Visibility: 6mi
Dew Point: 43°   Wind: 10mph
Humidity: 63%   Direction: 290°WNW
Pressure: 30.27"   Gusts: NA
Location:  50.82°N, 0.12°W
Report Text: EGKA 221350Z 29009KT 9999 FEW030 13/06 Q1025
Loading
Personal Weather Stations






























Interactive Weather Map
Tropical Storm Tracking
New forecast layout! Learn more

10-Day Weather Forecast

Advertisements
Track Severe Weather on mobile